createdAt,value
2022-08-23T00:02:22.905Z,101313.75
2022-08-23T00:05:07.770Z,101312.63
2022-08-23T00:07:43.521Z,101309.91
2022-08-23T00:10:14.871Z,101306.16
2022-08-23T00:12:44.778Z,101301.53
2022-08-23T00:15:16.336Z,101309.97
2022-08-23T00:18:08.101Z,101306.22
2022-08-23T00:20:35.420Z,101302.94
2022-08-23T00:23:02.363Z,101300.78
2022-08-23T00:25:30.952Z,101306.22
2022-08-23T00:27:57.994Z,101308.94
2022-08-23T00:30:25.670Z,101306.47
2022-08-23T00:32:52.574Z,101301.59
2022-08-23T00:35:28.860Z,101301.63
2022-08-23T00:38:33.389Z,101289.06
2022-08-23T00:40:51.941Z,101296.13
2022-08-23T00:43:47.201Z,101296.94
2022-08-23T00:46:47.474Z,101296.41
2022-08-23T00:49:17.202Z,101282.56
2022-08-23T00:52:04.290Z,101286.63
2022-08-23T00:54:32.367Z,101281.81
2022-08-23T00:57:01.953Z,101287.84
2022-08-23T00:59:29.137Z,101287.63
2022-08-23T01:01:56.194Z,101286.28
2022-08-23T01:04:33.009Z,101284.94
2022-08-23T01:07:10.349Z,101275.47
2022-08-23T01:09:38.125Z,101283.63
2022-08-23T01:12:09.083Z,101281.19
2022-08-23T01:14:50.312Z,101280.34
2022-08-23T01:17:40.619Z,101275.19
2022-08-23T01:20:12.273Z,101282.84
2022-08-23T01:23:00.594Z,101287.16
2022-08-23T01:25:30.929Z,101284.97
2022-08-23T01:27:58.539Z,101290.41
2022-08-23T01:30:29.350Z,101286.88
2022-08-23T01:33:00.351Z,101295.84
2022-08-23T01:35:40.871Z,101286.06
2022-08-23T01:38:08.922Z,101280.94
2022-08-23T01:40:36.345Z,101291.00
2022-08-23T01:43:04.650Z,101291.00
2022-08-23T01:45:32.057Z,101286.38
2022-08-23T01:48:00.094Z,101285.25
2022-08-23T01:50:28.154Z,101291.50
2022-08-23T01:52:55.699Z,101286.38
2022-08-23T01:55:24.437Z,101286.38
2022-08-23T01:57:54.291Z,101296.13
2022-08-23T02:00:26.042Z,101285.56
2022-08-23T02:02:54.154Z,101284.16
2022-08-23T02:05:21.181Z,101285.31
2022-08-23T02:07:48.390Z,101282.53
2022-08-23T02:10:22.842Z,101279.81
2022-08-23T02:12:50.734Z,101283.94
2022-08-23T02:15:17.694Z,101278.19
2022-08-23T02:17:47.684Z,101281.44
2022-08-23T02:20:14.945Z,101284.16
2022-08-23T02:22:41.983Z,101287.16
2022-08-23T02:25:09.516Z,101283.34
2022-08-23T02:27:36.694Z,101282.84
2022-08-23T02:30:04.538Z,101282.53
2022-08-23T02:32:31.958Z,101274.97
2022-08-23T02:35:05.323Z,101275.19
2022-08-23T02:37:35.702Z,101270.03
2022-08-23T02:40:05.102Z,101279.31
2022-08-23T02:42:32.354Z,101272.53
2022-08-23T02:45:00.719Z,101274.72
2022-08-23T02:47:27.782Z,101268.78
2022-08-23T02:50:08.617Z,101286.13
2022-08-23T02:52:36.674Z,101291.03
2022-08-23T02:55:04.497Z,101300.59
2022-08-23T02:57:31.703Z,101295.72
2022-08-23T03:00:01.611Z,101290.28
2022-08-23T03:02:30.246Z,101299.25
2022-08-23T03:04:57.109Z,101298.75
2022-08-23T03:07:24.230Z,101303.88
2022-08-23T03:09:51.284Z,101305.50
2022-08-23T03:12:19.177Z,101295.16
2022-08-23T03:14:54.615Z,101311.47
2022-08-23T03:17:22.102Z,101309.84
2022-08-23T03:19:50.332Z,101305.50
2022-08-23T03:22:17.182Z,101308.22
2022-08-23T03:24:44.976Z,101314.47
2022-08-23T03:27:12.506Z,101322.06
2022-08-23T03:29:40.892Z,101316.38
2022-08-23T03:32:08.443Z,101310.66
2022-08-23T03:34:39.064Z,101309.84
2022-08-23T03:37:08.489Z,101318.28
2022-08-23T03:39:36.152Z,101327.56
2022-08-23T03:42:03.457Z,101331.88
2022-08-23T03:44:33.053Z,101325.94
2022-08-23T03:47:00.032Z,101331.38
2022-08-23T03:49:27.789Z,101327.31
2022-08-23T03:51:56.750Z,101327.84
2022-08-23T03:54:23.958Z,101333.28
2022-08-23T03:57:02.892Z,101325.41
2022-08-23T03:59:35.257Z,101333.03
2022-08-23T04:02:04.244Z,101334.66
2022-08-23T04:04:31.813Z,101327.59
2022-08-23T04:07:24.419Z,101311.56
2022-08-23T04:09:55.474Z,101316.19
2022-08-23T04:12:28.942Z,101318.69
2022-08-23T04:14:56.017Z,101316.19
2022-08-23T04:17:23.884Z,101324.06
2022-08-23T04:19:52.806Z,101318.13
2022-08-23T04:22:20.464Z,101328.69
2022-08-23T04:24:47.733Z,101323.56
2022-08-23T04:27:15.975Z,101316.72
2022-08-23T04:29:44.499Z,101321.88
2022-08-23T04:32:12.003Z,101321.59
2022-08-23T04:34:40.387Z,101325.94
2022-08-23T04:37:09.677Z,101333.81
2022-08-23T04:39:59.363Z,101329.97
2022-08-23T04:42:32.482Z,101337.31
2022-08-23T04:45:01.108Z,101335.13
2022-08-23T04:47:28.170Z,101336.47
2022-08-23T04:49:57.303Z,101338.09
2022-08-23T04:52:24.323Z,101338.63
2022-08-23T04:54:51.236Z,101336.69
2022-08-23T04:57:38.479Z,101338.84
2022-08-23T05:00:07.143Z,101348.09
2022-08-23T05:02:35.076Z,101359.50
2022-08-23T05:05:03.120Z,101352.94
2022-08-23T05:07:42.150Z,101354.28
2022-08-23T05:10:12.971Z,101355.38
2022-08-23T05:12:42.714Z,101356.94
2022-08-23T05:15:10.590Z,101365.34
2022-08-23T05:17:40.370Z,101357.72
2022-08-23T05:20:10.406Z,101355.22
2022-08-23T05:22:41.045Z,101358.19
2022-08-23T05:25:21.690Z,101352.72
2022-08-23T05:27:50.233Z,101358.38
2022-08-23T05:30:17.147Z,101352.88
2022-08-23T05:32:44.296Z,101360.19
2022-08-23T05:35:12.983Z,101358.78
2022-08-23T05:37:43.288Z,101357.09
2022-08-23T05:40:10.966Z,101357.91
2022-08-23T05:42:48.034Z,101364.91
2022-08-23T05:45:19.403Z,101359.69
2022-08-23T05:47:49.833Z,101357.19
2022-08-23T05:50:24.318Z,101356.31
2022-08-23T05:53:16.563Z,101358.19
2022-08-23T05:56:31.157Z,101356.78
2022-08-23T05:59:01.102Z,101353.75
2022-08-23T06:01:30.309Z,101358.41
2022-08-23T06:04:07.836Z,101352.97
2022-08-23T06:06:37.533Z,101363.25
2022-08-23T06:09:08.481Z,101369.22
2022-08-23T06:11:36.664Z,101373.00
2022-08-23T06:14:07.963Z,101378.91
2022-08-23T06:16:38.113Z,101381.56
2022-08-23T06:19:07.585Z,101376.59
2022-08-23T06:21:49.473Z,101371.59
2022-08-23T06:24:23.521Z,101373.06
2022-08-23T06:27:07.580Z,101370.19
2022-08-23T06:29:34.587Z,101377.91
2022-08-23T06:32:24.834Z,101368.25
2022-08-23T06:35:37.609Z,101375.38
2022-08-23T06:38:04.236Z,101376.59
2022-08-23T06:40:52.401Z,101384.53
2022-08-23T06:43:30.841Z,101378.06
2022-08-23T06:46:23.545Z,101374.66
2022-08-23T06:48:51.765Z,101382.06
2022-08-23T06:51:30.457Z,101385.91
2022-08-23T06:54:32.624Z,101383.72
2022-08-23T06:57:23.140Z,101378.28
2022-08-23T07:00:22.326Z,101382.84
2022-08-23T07:03:21.614Z,101384.63
2022-08-23T07:06:07.839Z,101388.50
2022-08-23T07:08:37.162Z,101381.88
2022-08-23T07:11:04.501Z,101375.84
2022-08-23T07:13:31.418Z,101382.94
2022-08-23T07:15:59.997Z,101379.94
2022-08-23T07:18:27.385Z,101376.06
2022-08-23T07:20:59.960Z,101373.88
2022-08-23T07:23:27.320Z,101371.81
2022-08-23T07:25:55.281Z,101373.50
2022-08-23T07:28:25.800Z,101379.31
2022-08-23T07:30:52.765Z,101375.50
2022-08-23T07:33:19.862Z,101383.28
2022-08-23T07:36:07.072Z,101373.41
2022-08-23T07:38:35.236Z,101383.91
2022-08-23T07:41:03.886Z,101387.66
2022-08-23T07:43:34.408Z,101382.72
2022-08-23T07:46:04.322Z,101381.31
2022-08-23T07:48:52.447Z,101376.00
2022-08-23T07:51:22.893Z,101389.13
2022-08-23T07:53:49.869Z,101380.13
2022-08-23T07:56:20.054Z,101388.38
2022-08-23T07:59:18.843Z,101379.03
2022-08-23T08:02:08.919Z,101382.25
2022-08-23T08:04:36.746Z,101377.09
2022-08-23T08:07:18.954Z,101385.50
2022-08-23T08:09:54.135Z,101386.47
2022-08-23T08:12:21.948Z,101374.38
2022-08-23T08:14:51.245Z,101378.56
2022-08-23T08:17:26.842Z,101381.50
2022-08-23T08:20:03.825Z,101383.75
2022-08-23T08:22:58.540Z,101374.69
2022-08-23T08:25:59.370Z,101381.31
2022-08-23T08:28:26.273Z,101385.03
2022-08-23T08:30:53.276Z,101378.41
2022-08-23T08:33:20.118Z,101383.41
2022-08-23T08:35:57.618Z,101390.97
2022-08-23T08:38:30.601Z,101383.00
2022-08-23T08:41:19.295Z,101394.09
2022-08-23T08:44:08.889Z,101387.75
2022-08-23T08:46:46.026Z,101379.63
2022-08-23T08:49:34.113Z,101384.31
2022-08-23T08:52:24.937Z,101388.16
2022-08-23T08:55:01.205Z,101383.94
2022-08-23T08:57:30.317Z,101384.22
2022-08-23T09:00:13.880Z,101384.84
2022-08-23T09:02:45.179Z,101381.56
2022-08-23T09:05:16.223Z,101379.81
2022-08-23T09:07:56.169Z,101384.63
2022-08-23T09:10:47.865Z,101377.13
2022-08-23T09:13:36.102Z,101384.81
2022-08-23T09:16:36.473Z,101380.53
2022-08-23T09:19:04.100Z,101387.91
2022-08-23T09:21:37.801Z,101378.31
2022-08-23T09:24:04.894Z,101382.16
2022-08-23T09:26:48.945Z,101377.59
2022-08-23T09:29:29.942Z,101376.38
2022-08-23T09:32:02.274Z,101382.63
2022-08-23T09:34:36.070Z,101379.66
2022-08-23T09:37:23.828Z,101380.81
2022-08-23T09:39:53.223Z,101388.06
2022-08-23T09:42:37.966Z,101389.78
2022-08-23T09:45:33.170Z,101385.66
2022-08-23T09:48:04.819Z,101392.25
2022-08-23T09:50:42.542Z,101385.38
2022-08-23T09:53:12.043Z,101387.91
2022-08-23T09:55:43.165Z,101394.81
2022-08-23T09:58:29.068Z,101388.63
2022-08-23T10:01:36.714Z,101389.06
2022-08-23T10:04:17.606Z,101393.59
2022-08-23T10:06:46.335Z,101388.06
2022-08-23T10:09:26.941Z,101388.88
2022-08-23T10:11:56.196Z,101380.16
2022-08-23T10:14:27.355Z,101378.66
2022-08-23T10:17:24.681Z,101385.44
2022-08-23T10:20:33.887Z,101384.91
2022-08-23T10:23:05.502Z,101385.72
2022-08-23T10:25:55.350Z,101380.09
2022-08-23T10:29:12.529Z,101376.06
2022-08-23T10:31:45.029Z,101381.34
2022-08-23T10:34:50.753Z,101386.28
2022-08-23T10:37:57.842Z,101372.63
2022-08-23T10:40:42.875Z,101378.84
2022-08-23T10:43:20.965Z,101379.41
2022-08-23T10:45:49.313Z,101380.09
2022-08-23T10:48:54.063Z,101372.75
2022-08-23T10:51:32.069Z,101372.88
2022-08-23T10:54:06.323Z,101371.94
2022-08-23T10:56:35.060Z,101378.38
2022-08-23T10:59:08.160Z,101370.31
2022-08-23T11:01:45.979Z,101372.63
2022-08-23T11:04:25.209Z,101373.88
2022-08-23T11:07:20.746Z,101372.91
2022-08-23T11:10:18.097Z,101372.94
2022-08-23T11:13:00.324Z,101372.44
2022-08-23T11:15:45.073Z,101377.25
2022-08-23T11:18:42.263Z,101377.13
2022-08-23T11:21:18.993Z,101380.53
2022-08-23T11:24:14.869Z,101375.44
2022-08-23T11:27:05.953Z,101372.13
2022-08-23T11:29:38.758Z,101376.91
2022-08-23T11:32:39.092Z,101369.41
2022-08-23T11:35:35.219Z,101373.50
2022-08-23T11:38:04.135Z,101374.31
2022-08-23T11:40:55.717Z,101370.38
2022-08-23T11:43:36.113Z,101380.38
2022-08-23T11:46:27.401Z,101372.09
2022-08-23T11:49:31.070Z,101371.19
2022-08-23T11:52:25.676Z,101375.19
2022-08-23T11:57:15.905Z,101373.59
2022-08-23T12:00:29.002Z,101386.19
2022-08-23T12:03:33.740Z,101372.81
2022-08-23T12:06:09.224Z,101383.59
2022-08-23T12:08:57.989Z,101386.41
2022-08-23T12:11:26.295Z,101377.34
2022-08-23T12:14:01.857Z,101385.88
2022-08-23T12:16:34.211Z,101388.63
2022-08-23T12:19:09.741Z,101384.53
2022-08-23T12:21:50.981Z,101386.03
2022-08-23T12:24:44.447Z,101374.50
2022-08-23T12:27:27.513Z,101374.38
2022-08-23T12:30:27.615Z,101371.88
2022-08-23T12:33:11.260Z,101371.09
2022-08-23T12:36:42.000Z,101371.47
2022-08-23T12:39:27.461Z,101365.06
2022-08-23T12:42:10.644Z,101377.00
2022-08-23T12:44:38.132Z,101372.88
2022-08-23T12:47:20.949Z,101364.59
2022-08-23T12:50:12.984Z,101358.78
2022-08-23T12:52:40.166Z,101356.03
2022-08-23T12:55:19.972Z,101334.69
2022-08-23T12:57:55.146Z,101345.06
2022-08-23T13:00:53.009Z,101334.25
2022-08-23T13:03:33.979Z,101334.91
2022-08-23T13:06:10.714Z,101320.25
2022-08-23T13:08:48.281Z,101322.22
2022-08-23T13:11:21.306Z,101313.66
2022-08-23T13:13:49.144Z,101320.06
2022-08-23T13:16:32.210Z,101317.69
2022-08-23T13:19:23.937Z,101319.00
2022-08-23T13:22:31.437Z,101322.13
2022-08-23T13:25:28.231Z,101319.31
2022-08-23T13:27:56.379Z,101303.19
2022-08-23T13:30:29.605Z,101309.56
2022-08-23T13:33:19.913Z,101312.59
2022-08-23T13:35:53.429Z,101316.97
2022-08-23T13:38:31.330Z,101306.63
2022-08-23T13:41:11.072Z,101299.00
2022-08-23T13:43:43.999Z,101312.00
2022-08-23T13:46:27.589Z,101312.56
2022-08-23T13:49:06.205Z,101321.34
2022-08-23T13:52:11.940Z,101319.22
2022-08-23T13:54:51.284Z,101326.84
2022-08-23T13:57:20.945Z,101313.25
2022-08-23T13:59:55.013Z,101317.88
2022-08-23T14:02:24.114Z,101306.88
2022-08-23T14:04:51.231Z,101320.56
2022-08-23T14:07:18.778Z,101313.91
2022-08-23T14:09:45.977Z,101311.75
2022-08-23T14:12:19.405Z,101326.22
2022-08-23T14:14:47.556Z,101321.47
2022-08-23T14:17:16.604Z,101317.81
2022-08-23T14:22:35.230Z,101306.66
2022-08-23T14:25:02.545Z,101309.53
2022-08-23T14:27:29.381Z,101305.47
2022-08-23T14:29:56.673Z,101304.63
2022-08-23T14:32:24.177Z,101299.09
2022-08-23T14:34:52.702Z,101300.81
2022-08-23T14:38:00.444Z,101286.31
2022-08-23T14:40:09.230Z,101295.13
2022-08-23T14:42:36.259Z,101295.75
2022-08-23T14:45:04.495Z,101289.41
2022-08-23T14:47:31.362Z,101300.97
2022-08-23T14:49:58.303Z,101286.13
2022-08-23T14:52:25.684Z,101281.47
2022-08-23T14:54:52.603Z,101287.88
2022-08-23T14:57:19.981Z,101290.00
2022-08-23T14:59:47.092Z,101286.63
2022-08-23T15:02:23.475Z,101285.81
2022-08-23T15:04:51.084Z,101293.00
2022-08-23T15:07:19.576Z,101283.34
2022-08-23T15:09:50.159Z,101284.50
2022-08-23T15:15:16.016Z,101290.34
2022-08-23T15:18:04.179Z,101287.81
2022-08-23T15:20:34.894Z,101284.97
2022-08-23T15:23:02.263Z,101276.75
2022-08-23T15:25:33.495Z,101287.31
2022-08-23T15:28:04.017Z,101277.41
2022-08-23T15:30:33.594Z,101287.38
2022-08-23T15:33:01.454Z,101290.22
2022-08-23T15:35:34.788Z,101287.81
2022-08-23T15:38:02.257Z,101284.41
2022-08-23T15:40:29.291Z,101278.97
2022-08-23T15:42:56.291Z,101293.44
2022-08-23T15:45:23.562Z,101283.56
2022-08-23T15:47:54.303Z,101279.66
2022-08-23T15:50:26.476Z,101284.09
2022-08-23T15:52:55.320Z,101277.31
2022-08-23T15:55:23.145Z,101284.13
2022-08-23T15:57:52.927Z,101279.31
2022-08-23T16:00:22.803Z,101281.31
2022-08-23T16:03:27.846Z,101282.88
2022-08-23T16:05:41.195Z,101279.69
2022-08-23T16:08:14.707Z,101275.31
2022-08-23T16:10:41.780Z,101275.31
2022-08-23T16:13:09.326Z,101270.91
2022-08-23T16:15:39.151Z,101279.69
2022-08-23T16:18:07.029Z,101276.41
2022-08-23T16:20:34.017Z,101285.56
2022-08-23T16:23:01.176Z,101278.38
2022-08-23T16:25:28.720Z,101275.16
2022-08-23T16:27:55.968Z,101274.28
2022-08-23T16:30:24.318Z,101281.44
2022-08-23T16:32:51.467Z,101284.97
2022-08-23T16:35:18.603Z,101276.59
2022-08-23T16:37:45.466Z,101274.56
2022-08-23T16:40:13.049Z,101278.03
2022-08-23T16:42:40.440Z,101275.56
2022-08-23T16:45:08.888Z,101282.63
2022-08-23T16:47:43.376Z,101291.63
2022-08-23T16:50:13.706Z,101288.34
2022-08-23T16:52:41.056Z,101286.53
2022-08-23T16:55:11.389Z,101280.31
2022-08-23T16:57:39.833Z,101292.28
2022-08-23T17:00:13.744Z,101296.25
2022-08-23T17:02:42.162Z,101304.91
2022-08-23T17:05:15.415Z,101304.78
2022-08-23T17:07:43.185Z,101316.09
2022-08-23T17:10:12.858Z,101317.88
2022-08-23T17:12:47.146Z,101331.81
2022-08-23T17:15:20.369Z,101323.59
2022-08-23T17:17:48.749Z,101327.91
2022-08-23T17:20:16.711Z,101334.16
2022-08-23T17:22:43.651Z,101336.13
2022-08-23T17:25:12.145Z,101340.13
2022-08-23T17:27:45.455Z,101339.28
2022-08-23T17:30:16.903Z,101350.34
2022-08-23T17:32:44.941Z,101353.41
2022-08-23T17:35:15.089Z,101358.84
2022-08-23T17:37:43.177Z,101354.00
2022-08-23T17:40:16.122Z,101359.53
2022-08-23T17:42:47.069Z,101364.94
2022-08-23T17:45:14.287Z,101363.63
2022-08-23T17:47:41.806Z,101369.19
2022-08-23T17:50:09.960Z,101375.19
2022-08-23T17:52:36.854Z,101364.00
2022-08-23T17:55:04.808Z,101379.81
2022-08-23T17:57:32.394Z,101378.66
2022-08-23T18:00:00.501Z,101390.56
2022-08-23T18:02:31.509Z,101400.03
2022-08-23T18:04:58.722Z,101402.50
2022-08-23T18:07:26.972Z,101402.56
2022-08-23T18:09:53.960Z,101409.38
2022-08-23T18:12:21.467Z,101414.41
2022-08-23T18:14:48.430Z,101415.88
2022-08-23T18:17:15.847Z,101414.41
2022-08-23T18:19:43.073Z,101422.50
2022-08-23T18:22:09.975Z,101422.19
2022-08-23T18:24:37.114Z,101428.28
2022-08-23T18:27:23.085Z,101438.25
2022-08-23T18:29:51.653Z,101436.28
2022-08-23T18:32:23.269Z,101446.72
2022-08-23T18:34:50.517Z,101444.06
2022-08-23T18:37:18.493Z,101441.94
2022-08-23T18:39:46.074Z,101443.16
2022-08-23T18:42:13.505Z,101443.13
2022-08-23T18:44:41.176Z,101450.69
2022-08-23T18:47:08.592Z,101450.63
2022-08-23T18:49:36.000Z,101458.81
2022-08-23T18:52:04.245Z,101451.13
2022-08-23T18:54:34.025Z,101448.31
2022-08-23T18:57:02.171Z,101466.00
2022-08-23T18:59:29.293Z,101465.13
2022-08-23T19:01:56.678Z,101466.19
2022-08-23T19:04:24.221Z,101459.03
2022-08-23T19:06:54.156Z,101463.31
2022-08-23T19:09:21.616Z,101474.47
2022-08-23T19:11:48.929Z,101470.84
2022-08-23T19:14:16.294Z,101476.72
2022-08-23T19:16:48.782Z,101473.09
2022-08-23T19:19:18.557Z,101464.78
2022-08-23T19:21:45.791Z,101470.66
2022-08-23T19:24:12.978Z,101478.16
2022-08-23T19:26:41.821Z,101482.72
2022-08-23T19:29:09.554Z,101484.53
2022-08-23T19:31:42.618Z,101490.19
2022-08-23T19:34:11.400Z,101494.66
2022-08-23T19:36:48.276Z,101497.78
2022-08-23T19:39:19.401Z,101490.28
2022-08-23T19:41:48.506Z,101494.53
2022-08-23T19:44:17.775Z,101503.63
2022-08-23T19:46:45.517Z,101510.00
2022-08-23T19:49:13.455Z,101510.91
2022-08-23T19:51:40.984Z,101515.09
2022-08-23T19:54:10.933Z,101502.13
2022-08-23T19:56:48.800Z,101518.28
2022-08-23T19:59:26.686Z,101521.38
2022-08-23T20:01:54.886Z,101522.06
2022-08-23T20:04:23.462Z,101512.06
2022-08-23T20:06:51.074Z,101525.47
2022-08-23T20:09:19.427Z,101523.66
2022-08-23T20:11:46.833Z,101520.78
2022-08-23T20:14:14.123Z,101530.06
2022-08-23T20:16:42.049Z,101520.84
2022-08-23T20:19:11.042Z,101537.31
2022-08-23T20:21:40.805Z,101535.16
2022-08-23T20:24:10.053Z,101536.78
2022-08-23T20:26:42.258Z,101541.50
2022-08-23T20:29:19.516Z,101534.22
2022-08-23T20:31:55.453Z,101530.75
2022-08-23T20:34:23.254Z,101547.13
2022-08-23T20:36:55.863Z,101543.34
2022-08-23T20:39:24.493Z,101529.78
2022-08-23T20:41:53.001Z,101548.59
2022-08-23T20:44:25.961Z,101546.75
2022-08-23T20:46:54.844Z,101537.81
2022-08-23T20:49:24.770Z,101543.03
2022-08-23T20:51:51.644Z,101540.59
2022-08-23T20:54:19.517Z,101557.56
2022-08-23T20:56:49.714Z,101551.88
2022-08-23T20:59:18.093Z,101557.63
2022-08-23T21:01:45.026Z,101563.13
2022-08-23T21:04:12.630Z,101561.00
2022-08-23T21:06:48.292Z,101559.38
2022-08-23T21:09:20.155Z,101554.50
2022-08-23T21:11:49.919Z,101560.31
2022-08-23T21:14:18.552Z,101555.94
2022-08-23T21:16:47.495Z,101552.19
2022-08-23T21:19:14.958Z,101554.69
2022-08-23T21:21:42.631Z,101550.63
2022-08-23T21:24:11.719Z,101555.25
2022-08-23T21:26:39.372Z,101547.44
2022-08-23T21:29:08.474Z,101544.47
2022-08-23T21:31:36.406Z,101544.22
2022-08-23T21:34:03.769Z,101542.88
2022-08-23T21:36:31.137Z,101541.53
2022-08-23T21:38:58.301Z,101542.94
2022-08-23T21:41:43.367Z,101539.13
2022-08-23T21:44:14.900Z,101541.63
2022-08-23T21:46:42.343Z,101544.91
2022-08-23T21:49:09.809Z,101540.06
2022-08-23T21:51:40.609Z,101547.47
2022-08-23T21:54:09.530Z,101549.38
2022-08-23T21:56:37.838Z,101550.22
2022-08-23T21:59:13.761Z,101539.09
2022-08-23T22:01:42.643Z,101536.44
2022-08-23T22:04:12.890Z,101538.09
2022-08-23T22:06:46.191Z,101540.28
2022-08-23T22:09:19.150Z,101540.88
2022-08-23T22:11:48.091Z,101542.53
2022-08-23T22:14:20.409Z,101540.69
2022-08-23T22:16:49.245Z,101538.53
2022-08-23T22:19:22.518Z,101533.13
2022-08-23T22:21:52.194Z,101538.03
2022-08-23T22:24:25.641Z,101534.78
2022-08-23T22:26:55.557Z,101537.78
2022-08-23T22:29:23.795Z,101540.53
2022-08-23T22:31:51.075Z,101532.94
2022-08-23T22:34:18.126Z,101535.41
2022-08-23T22:36:46.194Z,101533.25
2022-08-23T22:39:18.773Z,101542.00
2022-08-23T22:41:45.729Z,101546.63
2022-08-23T22:44:13.263Z,101534.69
2022-08-23T22:46:40.929Z,101541.22
2022-08-23T22:49:08.973Z,101541.75
2022-08-23T22:51:36.851Z,101535.53
2022-08-23T22:54:09.853Z,101539.34
2022-08-23T22:56:52.720Z,101543.16
2022-08-23T22:59:22.384Z,101538.03
2022-08-23T23:01:58.293Z,101551.63
2022-08-23T23:04:27.772Z,101546.75
2022-08-23T23:06:55.995Z,101545.44
2022-08-23T23:09:24.092Z,101544.34
2022-08-23T23:11:52.188Z,101545.47
2022-08-23T23:14:21.256Z,101543.59
2022-08-23T23:16:49.601Z,101543.59
2022-08-23T23:19:36.113Z,101545.22
2022-08-23T23:22:04.431Z,101543.34
2022-08-23T23:24:36.148Z,101537.66
2022-08-23T23:27:04.605Z,101543.91
2022-08-23T23:29:32.401Z,101548.28
2022-08-23T23:31:59.579Z,101546.66
2022-08-23T23:34:27.863Z,101548.84
2022-08-23T23:36:57.227Z,101545.56
2022-08-23T23:39:24.739Z,101546.66
2022-08-23T23:41:51.921Z,101546.13
2022-08-23T23:44:22.605Z,101532.00
2022-08-23T23:46:56.900Z,101531.75
2022-08-23T23:49:33.156Z,101537.47
2022-08-23T23:52:05.209Z,101529.59
2022-08-23T23:54:34.077Z,101530.16
2022-08-23T23:57:01.609Z,101532.34
2022-08-23T23:59:28.930Z,101529.38
